Thomasville, GA (31757)

2:42 AM EDT on July 29, 2014 (GMT -0400)
East Thomasville (KGATHOMA7) Elev 285 ft | 30.84 °N, 83.94 °W | Change Station

Current weather conditions updated 4 seconds ago

Scattered Clouds
Scattered Clouds
75.4 °F
Feels Like 75 °F
N
0.7
Wind Variable Wind from NW
Gusts 5.4 mph

Today is forecast to be Cooler than yesterday.

Today
High -- | Low -- °F
--% Chance of Precip.
Yesterday
High -- | Low -- °F
Precip. -- in
6:51 AM 8:32 PM
Waxing Crescent, 5% visible
Pressure 29.94 in
Visibility 10.0 miles
Clouds Scattered Clouds 5000 ft
Scattered Clouds 6500 ft
Heat Index 75 °F
Dew Point 73 °F
Humidity 92%
Rainfall 0.00 in
Snow Depth Not available.
UV 0 out of 12
Pollen 6.00 out of 12
Air Quality Not available.
Flu Activity Not available.
METAR KTVI 290635Z AUTO 28003KT 10SM SCT050 SCT065 24/24 A2994 RMK AO2

More Conditions Fewer Conditions

Pressure 29.94 in
Visibility 10.0 miles
Clouds Scattered Clouds 5000 ft
Scattered Clouds 6500 ft
Heat Index 75 °F
Dew Point 73 °F
Humidity 92%
Rainfall 0.00 in
Snow Depth Not available.
UV 0 out of 12
Pollen 6.00 out of 12
Air Quality Not available.
Flu Activity Not available.
METAR KTVI 290635Z AUTO 28003KT 10SM SCT050 SCT065 24/24 A2994 RMK AO2

More Conditions Fewer Conditions

10-Day Weather Forecast

Almanac

Astronomy

Jul. 29, 2014 Rise Set
Actual Time 6:51 AM EDT 8:32 PM EDT
Civil Twilight 6:24 AM EDT 8:58 PM EDT
Nautical Twilight 5:53 AM EDT 9:30 PM EDT
Astronomical Twilight 5:19 AM EDT 10:04 PM EDT
Moon 9:13 AM EDT 10:00 PM EDT
Length of Visible Light 14h 34m
Length of Day
13h 41m
Tomorrow will be 1m 20s shorter.
Waxing Crescent, 5% of the Moon is Illuminated
Today
Waxing Crescent
Aug 3
First Quarter
Aug 10
Full
Aug 17
Last Quarter
Aug 25
New

Today's Extremes

State Highs State Lows

Community

WunderPhotos

Upload Photos

1,738,651 photos uploaded!

Nearby

Snow Depth

Station Depth Elevation
No new snow has been reported.

Earthquake Activity

City Distance Mag. Time & Date
No recent earthquake activity has been reported nearby.
Minimum magnitude displayed is 2.5.

Coastal Water Temperatures

Place Temperature
No Stations Reporting

Nearby Weather Stations

Station Location Temp. Heat Index Dew Point Humidity Wind Precip. Elev Updated Type
East Thomasville, Thomasville, GA 75.4 °F 75 °F 73 °F 92% NW  at  0.7 mph 0.00 in / hr 285 ft 2:42 AM EDT Rapid Fire
Thomasville Downtown Area - CNS Internet, Thomasville, GA 76.0 °F 76 °F 73 °F 91% West  at  1.0 mph 0.00 in / hr 215 ft 2:42 AM EDT Rapid Fire
KJ4ZNK, Cairo, GA 76.8 °F 79 °F 65 °F 66% NW  at  0.1 mph 0.00 in / hr 302 ft 2:42 AM EDT Rapid Fire
City of Moultrie Service Center, Moultrie, GA 74.9 °F 74 °F 72 °F 89% NW  at  1.0 mph 0.00 in / hr 299 ft 2:31 AM EDT Normal
Pecan Acres, Monticello, FL 74.2 °F 71 °F 74 °F 98% SW  at  0.0 mph - / hr 105 ft 2:26 AM EDT Normal

Show More Stations Show Fewer Stations